Roswell International Air Center Airport
KROW : now visible

Airfield :











YOU CAN JOIN US ON...

 
LOGIN :

Register | Disclaimer

   EN    FR    IT 

 









Legend :    VFR   Marginal VFR   IFR   Intensive IFR   Very Intensive IFR
Visi :
Ceiling :
>= 8 km
>= 3000ft
5 to 8 km
1000 to 3000 ft
1500m to 5 km
500 to 1000 ft
800 to 1500m
200 to 500 ft
< 800m
< 200 ft
Symbols :   Thunderstorms  Fog  Heavy snow  Heavy precipitations  Wind > 20 kt






- Airport Elevation : 3671 ft
- IATA code : ROW


KROW - Roswell International Air Center

CURRENT METAR :
  • 182351Z 14011G20KT 10SM CLR 32/16 A3014 RMK AO2 SLP139 T03170161 10328 20289 56014

EXPIRED METARs :
  • 182251Z 15014G20KT 10SM CLR 32/16 A3014 RMK AO2 SLP139 T03170161
  • 182151Z 13013KT 10SM FEW055 32/17 A3016 RMK AO2 SLP145 T03220167
  • 182051Z 20008KT 10SM FEW060 32/16 A3019 RMK AO2 SLP154 T03170156 58019
  • 181951Z 15005KT 10SM FEW050 31/16 A3021 RMK AO2 SLP164 T03060161

TAF KROW
Valid from the 19 at 00:00 until the 20 at 00:00 UTC


182326Z 1900/1924 15012G20KT P6SM SCT070
TEMPO 1902/1906 VRB20G35KT 5SM -TSRA OVC060CB
FM190600 17007KT P6SM FEW060 BKN250
FM191900 17010G18KT P6SM SCT080 BKN250
KZAB FIR / North America



MET'MAP, your aeronautical weather chart ! - Copyright ORBIFLY December 2007 - Disclaimer

ORBIFLY MET'MAP TEAM :

Programming & Development : Alexandra Zaïnal
Original concept : Baudouin d'Aumeries
Technical & hardware support : Manuel Goepfert
Assistance : Marc-Olivier Méhu




SOURCES & CREDITS :

   NOAA       Earth
Advisory